sensor_id;sensor_type;location;lat;lon;timestamp;temperature;humidity
53294;DHT22;39181;53.440;5.644;2022-09-16T00:00:13;13.70;99.90
53294;DHT22;39181;53.440;5.644;2022-09-16T00:02:39;13.70;99.90
53294;DHT22;39181;53.440;5.644;2022-09-16T00:05:05;13.60;99.90
53294;DHT22;39181;53.440;5.644;2022-09-16T00:07:30;13.70;99.90
53294;DHT22;39181;53.440;5.644;2022-09-16T00:09:56;13.70;99.90
53294;DHT22;39181;53.440;5.644;2022-09-16T00:12:21;13.60;99.90
53294;DHT22;39181;53.440;5.644;2022-09-16T00:14:48;13.70;99.90
53294;DHT22;39181;53.440;5.644;2022-09-16T00:17:13;13.70;99.90
53294;DHT22;39181;53.440;5.644;2022-09-16T00:19:39;13.60;99.90
53294;DHT22;39181;53.440;5.644;2022-09-16T00:22:04;13.60;99.90
53294;DHT22;39181;53.440;5.644;2022-09-16T00:24:30;13.80;99.90
53294;DHT22;39181;53.440;5.644;2022-09-16T00:26:56;13.90;99.90
53294;DHT22;39181;53.440;5.644;2022-09-16T00:29:21;14.00;99.90
53294;DHT22;39181;53.440;5.644;2022-09-16T00:31:47;13.90;99.90
53294;DHT22;39181;53.440;5.644;2022-09-16T00:34:12;13.90;99.90
53294;DHT22;39181;53.440;5.644;2022-09-16T00:36:38;13.90;99.90
53294;DHT22;39181;53.440;5.644;2022-09-16T00:39:04;13.90;99.90
53294;DHT22;39181;53.440;5.644;2022-09-16T00:41:30;13.90;99.90
53294;DHT22;39181;53.440;5.644;2022-09-16T00:44:02;14.00;99.90
53294;DHT22;39181;53.440;5.644;2022-09-16T00:46:45;14.00;99.90
53294;DHT22;39181;53.440;5.644;2022-09-16T00:49:19;14.00;99.90
53294;DHT22;39181;53.440;5.644;2022-09-16T00:51:47;14.10;99.90
53294;DHT22;39181;53.440;5.644;2022-09-16T00:54:16;14.10;99.90
53294;DHT22;39181;53.440;5.644;2022-09-16T00:56:47;14.10;99.90
53294;DHT22;39181;53.440;5.644;2022-09-16T00:59:20;14.10;99.90
53294;DHT22;39181;53.440;5.644;2022-09-16T01:01:49;14.10;99.90
53294;DHT22;39181;53.440;5.644;2022-09-16T01:04:43;14.10;99.90
53294;DHT22;39181;53.440;5.644;2022-09-16T01:07:09;14.10;99.90
53294;DHT22;39181;53.440;5.644;2022-09-16T01:09:35;14.10;99.90
53294;DHT22;39181;53.440;5.644;2022-09-16T01:12:02;14.20;99.90
53294;DHT22;39181;53.440;5.644;2022-09-16T01:14:28;14.20;99.90
53294;DHT22;39181;53.440;5.644;2022-09-16T01:33:10;14.10;99.90
53294;DHT22;39181;53.440;5.644;2022-09-16T01:35:53;14.00;99.90
53294;DHT22;39181;53.440;5.644;2022-09-16T01:41:08;13.80;99.90
53294;DHT22;39181;53.440;5.644;2022-09-16T01:46:45;13.60;99.90
53294;DHT22;39181;53.440;5.644;2022-09-16T01:49:32;13.60;99.90
53294;DHT22;39181;53.440;5.644;2022-09-16T01:52:40;13.50;99.90
53294;DHT22;39181;53.440;5.644;2022-09-16T01:55:17;13.50;99.90
53294;DHT22;39181;53.440;5.644;2022-09-16T01:57:52;13.40;99.90
53294;DHT22;39181;53.440;5.644;2022-09-16T02:00:21;13.30;99.90
53294;DHT22;39181;53.440;5.644;2022-09-16T02:03:01;13.30;99.90
53294;DHT22;39181;53.440;5.644;2022-09-16T02:05:35;13.30;99.90
53294;DHT22;39181;53.440;5.644;2022-09-16T02:08:06;13.30;99.90
53294;DHT22;39181;53.440;5.644;2022-09-16T02:10:40;13.30;99.90
53294;DHT22;39181;53.440;5.644;2022-09-16T02:13:18;13.30;99.90
53294;DHT22;39181;53.440;5.644;2022-09-16T02:15:48;13.40;99.90
53294;DHT22;39181;53.440;5.644;2022-09-16T02:18:19;13.50;99.90
53294;DHT22;39181;53.440;5.644;2022-09-16T02:20:47;13.60;99.90
53294;DHT22;39181;53.440;5.644;2022-09-16T02:23:17;13.70;99.90
53294;DHT22;39181;53.440;5.644;2022-09-16T02:25:46;13.70;99.90
53294;DHT22;39181;53.440;5.644;2022-09-16T02:28:17;13.70;99.90
53294;DHT22;39181;53.440;5.644;2022-09-16T02:30:48;13.80;99.90
53294;DHT22;39181;53.440;5.644;2022-09-16T02:33:15;13.70;99.90
53294;DHT22;39181;53.440;5.644;2022-09-16T02:35:43;13.70;99.90
53294;DHT22;39181;53.440;5.644;2022-09-16T02:38:16;13.80;99.90
53294;DHT22;39181;53.440;5.644;2022-09-16T02:40:51;13.90;99.90
53294;DHT22;39181;53.440;5.644;2022-09-16T02:43:18;14.00;99.90
53294;DHT22;39181;53.440;5.644;2022-09-16T02:46:16;14.10;99.90
53294;DHT22;39181;53.440;5.644;2022-09-16T02:48:52;14.10;99.90
53294;DHT22;39181;53.440;5.644;2022-09-16T02:51:59;14.00;99.90
53294;DHT22;39181;53.440;5.644;2022-09-16T02:54:43;14.10;99.90
53294;DHT22;39181;53.440;5.644;2022-09-16T02:57:10;14.00;99.90
53294;DHT22;39181;53.440;5.644;2022-09-16T02:59:37;14.00;99.90
53294;DHT22;39181;53.440;5.644;2022-09-16T03:02:03;13.90;99.90
53294;DHT22;39181;53.440;5.644;2022-09-16T03:04:29;13.90;99.90
53294;DHT22;39181;53.440;5.644;2022-09-16T03:06:55;14.10;99.90
53294;DHT22;39181;53.440;5.644;2022-09-16T03:09:21;14.10;99.90
53294;DHT22;39181;53.440;5.644;2022-09-16T03:20:28;13.80;99.90
53294;DHT22;39181;53.440;5.644;2022-09-16T03:23:15;13.70;99.90
53294;DHT22;39181;53.440;5.644;2022-09-16T03:28:36;13.70;99.90
53294;DHT22;39181;53.440;5.644;2022-09-16T03:31:16;13.60;99.90
53294;DHT22;39181;53.440;5.644;2022-09-16T03:33:56;13.50;99.90
53294;DHT22;39181;53.440;5.644;2022-09-16T03:36:28;13.50;99.90
53294;DHT22;39181;53.440;5.644;2022-09-16T03:38:58;13.50;99.90
53294;DHT22;39181;53.440;5.644;2022-09-16T03:41:28;13.60;99.90
53294;DHT22;39181;53.440;5.644;2022-09-16T03:43:56;13.60;99.90
53294;DHT22;39181;53.440;5.644;2022-09-16T03:46:22;13.60;99.90
53294;DHT22;39181;53.440;5.644;2022-09-16T03:48:49;13.60;99.90
53294;DHT22;39181;53.440;5.644;2022-09-16T03:51:15;13.60;99.90
53294;DHT22;39181;53.440;5.644;2022-09-16T03:53:40;13.60;99.90
53294;DHT22;39181;53.440;5.644;2022-09-16T03:56:06;13.60;99.90
53294;DHT22;39181;53.440;5.644;2022-09-16T03:58:32;13.70;99.90
53294;DHT22;39181;53.440;5.644;2022-09-16T04:00:57;13.80;99.90
53294;DHT22;39181;53.440;5.644;2022-09-16T04:03:23;13.80;99.90
53294;DHT22;39181;53.440;5.644;2022-09-16T04:05:53;13.90;99.90
53294;DHT22;39181;53.440;5.644;2022-09-16T04:08:18;13.90;99.90
53294;DHT22;39181;53.440;5.644;2022-09-16T04:10:58;13.90;99.90
53294;DHT22;39181;53.440;5.644;2022-09-16T04:13:25;13.90;99.90
53294;DHT22;39181;53.440;5.644;2022-09-16T04:15:50;13.90;99.90
53294;DHT22;39181;53.440;5.644;2022-09-16T04:18:17;13.90;99.90
53294;DHT22;39181;53.440;5.644;2022-09-16T04:20:43;13.90;99.90
53294;DHT22;39181;53.440;5.644;2022-09-16T04:23:08;13.90;99.90
53294;DHT22;39181;53.440;5.644;2022-09-16T04:25:34;13.90;99.90
53294;DHT22;39181;53.440;5.644;2022-09-16T04:28:00;13.90;99.90
53294;DHT22;39181;53.440;5.644;2022-09-16T04:30:26;13.80;99.90
53294;DHT22;39181;53.440;5.644;2022-09-16T04:32:55;13.80;99.90
53294;DHT22;39181;53.440;5.644;2022-09-16T04:35:22;13.80;99.90
53294;DHT22;39181;53.440;5.644;2022-09-16T04:37:48;13.70;99.90
53294;DHT22;39181;53.440;5.644;2022-09-16T04:40:14;13.60;99.90
53294;DHT22;39181;53.440;5.644;2022-09-16T04:42:40;13.60;99.90
53294;DHT22;39181;53.440;5.644;2022-09-16T04:45:06;13.60;99.90
53294;DHT22;39181;53.440;5.644;2022-09-16T04:47:32;13.50;99.90
53294;DHT22;39181;53.440;5.644;2022-09-16T04:49:57;13.50;99.90
53294;DHT22;39181;53.440;5.644;2022-09-16T04:52:23;13.40;99.90
53294;DHT22;39181;53.440;5.644;2022-09-16T04:54:48;13.40;99.90
53294;DHT22;39181;53.440;5.644;2022-09-16T04:57:14;13.30;99.90
53294;DHT22;39181;53.440;5.644;2022-09-16T04:59:40;13.30;99.90
53294;DHT22;39181;53.440;5.644;2022-09-16T05:02:05;13.20;99.90
53294;DHT22;39181;53.440;5.644;2022-09-16T05:04:31;13.40;99.90
53294;DHT22;39181;53.440;5.644;2022-09-16T05:06:56;13.60;99.90
53294;DHT22;39181;53.440;5.644;2022-09-16T05:09:22;13.50;99.90
53294;DHT22;39181;53.440;5.644;2022-09-16T05:11:48;13.50;99.90
53294;DHT22;39181;53.440;5.644;2022-09-16T05:14:16;13.50;99.90
53294;DHT22;39181;53.440;5.644;2022-09-16T05:16:42;13.60;99.90
53294;DHT22;39181;53.440;5.644;2022-09-16T05:19:10;13.60;99.90
53294;DHT22;39181;53.440;5.644;2022-09-16T05:21:37;13.60;99.90
53294;DHT22;39181;53.440;5.644;2022-09-16T05:24:06;13.60;99.90
53294;DHT22;39181;53.440;5.644;2022-09-16T05:26:33;13.60;99.90
53294;DHT22;39181;53.440;5.644;2022-09-16T05:29:04;13.70;99.90
53294;DHT22;39181;53.440;5.644;2022-09-16T05:31:32;13.90;99.90
53294;DHT22;39181;53.440;5.644;2022-09-16T05:34:05;13.90;99.90
53294;DHT22;39181;53.440;5.644;2022-09-16T05:36:34;13.70;99.90
53294;DHT22;39181;53.440;5.644;2022-09-16T05:39:00;13.80;99.90
53294;DHT22;39181;53.440;5.644;2022-09-16T05:41:26;13.90;99.90
53294;DHT22;39181;53.440;5.644;2022-09-16T05:43:52;13.80;99.90
53294;DHT22;39181;53.440;5.644;2022-09-16T05:46:20;13.70;99.90
53294;DHT22;39181;53.440;5.644;2022-09-16T05:48:47;13.80;99.90
53294;DHT22;39181;53.440;5.644;2022-09-16T05:51:15;13.70;99.90
53294;DHT22;39181;53.440;5.644;2022-09-16T05:53:41;13.70;99.90
53294;DHT22;39181;53.440;5.644;2022-09-16T05:56:10;13.90;99.90
53294;DHT22;39181;53.440;5.644;2022-09-16T05:58:36;13.90;99.90
53294;DHT22;39181;53.440;5.644;2022-09-16T06:01:04;13.90;99.90
53294;DHT22;39181;53.440;5.644;2022-09-16T06:03:31;14.00;99.90
53294;DHT22;39181;53.440;5.644;2022-09-16T06:08:35;14.00;99.90
53294;DHT22;39181;53.440;5.644;2022-09-16T06:11:03;14.10;99.90
53294;DHT22;39181;53.440;5.644;2022-09-16T06:13:29;14.10;99.90
53294;DHT22;39181;53.440;5.644;2022-09-16T06:15:55;14.10;99.90
53294;DHT22;39181;53.440;5.644;2022-09-16T06:18:21;14.10;99.90
53294;DHT22;39181;53.440;5.644;2022-09-16T06:20:47;14.10;99.90
53294;DHT22;39181;53.440;5.644;2022-09-16T06:23:14;14.10;99.90
53294;DHT22;39181;53.440;5.644;2022-09-16T06:25:39;14.20;99.90
53294;DHT22;39181;53.440;5.644;2022-09-16T06:28:05;14.20;99.90
53294;DHT22;39181;53.440;5.644;2022-09-16T06:30:31;14.20;99.90
53294;DHT22;39181;53.440;5.644;2022-09-16T06:32:56;14.30;99.90
53294;DHT22;39181;53.440;5.644;2022-09-16T06:35:22;14.50;99.90
53294;DHT22;39181;53.440;5.644;2022-09-16T06:37:48;14.70;99.90
53294;DHT22;39181;53.440;5.644;2022-09-16T06:40:13;14.70;99.90
53294;DHT22;39181;53.440;5.644;2022-09-16T06:42:39;14.40;99.90
53294;DHT22;39181;53.440;5.644;2022-09-16T06:45:05;14.20;99.90
53294;DHT22;39181;53.440;5.644;2022-09-16T06:47:32;14.10;99.90
53294;DHT22;39181;53.440;5.644;2022-09-16T06:49:58;14.20;99.90
53294;DHT22;39181;53.440;5.644;2022-09-16T06:52:24;14.20;99.90
53294;DHT22;39181;53.440;5.644;2022-09-16T06:54:50;14.20;99.90
53294;DHT22;39181;53.440;5.644;2022-09-16T06:57:16;14.20;99.90
53294;DHT22;39181;53.440;5.644;2022-09-16T06:59:44;14.20;99.90
53294;DHT22;39181;53.440;5.644;2022-09-16T07:02:10;14.30;99.90
53294;DHT22;39181;53.440;5.644;2022-09-16T07:04:36;14.40;99.90
53294;DHT22;39181;53.440;5.644;2022-09-16T07:07:02;14.50;99.90
53294;DHT22;39181;53.440;5.644;2022-09-16T07:09:27;14.50;99.90
53294;DHT22;39181;53.440;5.644;2022-09-16T07:11:53;14.50;99.90
53294;DHT22;39181;53.440;5.644;2022-09-16T07:14:20;14.50;99.90
53294;DHT22;39181;53.440;5.644;2022-09-16T07:16:45;14.60;99.90
53294;DHT22;39181;53.440;5.644;2022-09-16T07:19:11;14.50;99.90
53294;DHT22;39181;53.440;5.644;2022-09-16T07:21:36;14.50;99.90
53294;DHT22;39181;53.440;5.644;2022-09-16T07:24:02;14.50;99.90
53294;DHT22;39181;53.440;5.644;2022-09-16T07:26:31;14.50;99.90
53294;DHT22;39181;53.440;5.644;2022-09-16T07:28:59;14.50;99.90
53294;DHT22;39181;53.440;5.644;2022-09-16T07:31:27;14.50;99.90
53294;DHT22;39181;53.440;5.644;2022-09-16T07:33:55;14.60;99.90
53294;DHT22;39181;53.440;5.644;2022-09-16T07:36:26;14.60;99.90
53294;DHT22;39181;53.440;5.644;2022-09-16T07:38:54;14.60;99.90
53294;DHT22;39181;53.440;5.644;2022-09-16T07:41:23;14.60;99.90
53294;DHT22;39181;53.440;5.644;2022-09-16T07:43:49;14.70;99.90
53294;DHT22;39181;53.440;5.644;2022-09-16T07:46:16;14.90;99.90
53294;DHT22;39181;53.440;5.644;2022-09-16T07:48:44;14.80;99.90
53294;DHT22;39181;53.440;5.644;2022-09-16T07:51:12;15.10;99.90
53294;DHT22;39181;53.440;5.644;2022-09-16T07:53:38;15.40;99.90
53294;DHT22;39181;53.440;5.644;2022-09-16T07:56:09;15.50;99.90
53294;DHT22;39181;53.440;5.644;2022-09-16T07:58:36;15.40;99.90
53294;DHT22;39181;53.440;5.644;2022-09-16T08:01:03;15.40;99.90
53294;DHT22;39181;53.440;5.644;2022-09-16T08:03:30;15.20;99.90
53294;DHT22;39181;53.440;5.644;2022-09-16T08:06:03;15.30;99.90
53294;DHT22;39181;53.440;5.644;2022-09-16T08:08:30;15.30;99.90
53294;DHT22;39181;53.440;5.644;2022-09-16T08:10:57;15.40;99.90
53294;DHT22;39181;53.440;5.644;2022-09-16T08:13:23;15.30;99.90
53294;DHT22;39181;53.440;5.644;2022-09-16T08:15:49;15.40;99.90
53294;DHT22;39181;53.440;5.644;2022-09-16T08:18:15;15.50;99.90
53294;DHT22;39181;53.440;5.644;2022-09-16T08:20:41;15.60;99.90
53294;DHT22;39181;53.440;5.644;2022-09-16T08:23:06;15.70;99.90
53294;DHT22;39181;53.440;5.644;2022-09-16T08:25:32;16.00;99.90
53294;DHT22;39181;53.440;5.644;2022-09-16T08:27:58;16.20;99.90
53294;DHT22;39181;53.440;5.644;2022-09-16T08:30:23;16.10;99.90
53294;DHT22;39181;53.440;5.644;2022-09-16T08:32:58;16.10;99.90
53294;DHT22;39181;53.440;5.644;2022-09-16T08:35:24;16.20;99.90
53294;DHT22;39181;53.440;5.644;2022-09-16T08:37:51;16.10;99.90
53294;DHT22;39181;53.440;5.644;2022-09-16T08:40:20;16.00;99.90
53294;DHT22;39181;53.440;5.644;2022-09-16T08:43:21;16.00;99.90
53294;DHT22;39181;53.440;5.644;2022-09-16T08:45:56;16.00;99.90
53294;DHT22;39181;53.440;5.644;2022-09-16T08:50:58;16.20;99.90
53294;DHT22;39181;53.440;5.644;2022-09-16T08:53:34;16.30;99.90
53294;DHT22;39181;53.440;5.644;2022-09-16T08:56:05;16.30;99.90
53294;DHT22;39181;53.440;5.644;2022-09-16T08:58:41;16.50;99.90
53294;DHT22;39181;53.440;5.644;2022-09-16T09:04:24;16.60;99.90
53294;DHT22;39181;53.440;5.644;2022-09-16T09:07:03;16.60;99.90
53294;DHT22;39181;53.440;5.644;2022-09-16T09:09:47;16.40;99.90
53294;DHT22;39181;53.440;5.644;2022-09-16T09:12:27;16.40;99.90
53294;DHT22;39181;53.440;5.644;2022-09-16T09:15:11;16.60;99.90
53294;DHT22;39181;53.440;5.644;2022-09-16T09:18:00;16.80;99.90
53294;DHT22;39181;53.440;5.644;2022-09-16T09:23:04;16.80;99.90
53294;DHT22;39181;53.440;5.644;2022-09-16T09:25:50;16.80;99.90
53294;DHT22;39181;53.440;5.644;2022-09-16T09:36:44;17.10;99.90
53294;DHT22;39181;53.440;5.644;2022-09-16T09:39:24;17.30;99.90
53294;DHT22;39181;53.440;5.644;2022-09-16T09:42:02;17.40;99.90
53294;DHT22;39181;53.440;5.644;2022-09-16T09:47:38;17.10;99.90
53294;DHT22;39181;53.440;5.644;2022-09-16T09:53:16;17.10;99.90
53294;DHT22;39181;53.440;5.644;2022-09-16T09:55:44;17.10;99.90
53294;DHT22;39181;53.440;5.644;2022-09-16T09:58:27;17.20;99.90
53294;DHT22;39181;53.440;5.644;2022-09-16T10:00:55;17.20;99.90
53294;DHT22;39181;53.440;5.644;2022-09-16T10:03:22;17.40;99.90
53294;DHT22;39181;53.440;5.644;2022-09-16T10:05:48;17.30;99.90
53294;DHT22;39181;53.440;5.644;2022-09-16T10:08:22;17.50;99.90
53294;DHT22;39181;53.440;5.644;2022-09-16T10:13:20;17.60;99.90
53294;DHT22;39181;53.440;5.644;2022-09-16T10:15:47;17.70;99.90
53294;DHT22;39181;53.440;5.644;2022-09-16T10:18:28;17.70;99.90
53294;DHT22;39181;53.440;5.644;2022-09-16T10:21:07;17.50;99.90
53294;DHT22;39181;53.440;5.644;2022-09-16T10:23:34;17.60;99.90
53294;DHT22;39181;53.440;5.644;2022-09-16T10:26:24;17.70;99.90
53294;DHT22;39181;53.440;5.644;2022-09-16T10:29:01;17.90;99.90
53294;DHT22;39181;53.440;5.644;2022-09-16T10:31:36;18.20;99.90
53294;DHT22;39181;53.440;5.644;2022-09-16T10:34:11;18.30;99.90
53294;DHT22;39181;53.440;5.644;2022-09-16T10:36:38;18.40;99.90
53294;DHT22;39181;53.440;5.644;2022-09-16T10:39:04;18.30;99.90
53294;DHT22;39181;53.440;5.644;2022-09-16T10:41:42;18.20;99.90
53294;DHT22;39181;53.440;5.644;2022-09-16T10:47:04;18.20;99.90
53294;DHT22;39181;53.440;5.644;2022-09-16T10:49:53;18.30;99.90
53294;DHT22;39181;53.440;5.644;2022-09-16T10:52:24;18.20;99.90
53294;DHT22;39181;53.440;5.644;2022-09-16T10:54:51;18.30;99.90
53294;DHT22;39181;53.440;5.644;2022-09-16T10:57:29;18.10;99.90
53294;DHT22;39181;53.440;5.644;2022-09-16T11:00:13;18.10;99.90
53294;DHT22;39181;53.440;5.644;2022-09-16T11:05:20;18.10;99.90
53294;DHT22;39181;53.440;5.644;2022-09-16T11:08:12;18.10;99.90
53294;DHT22;39181;53.440;5.644;2022-09-16T11:10:58;18.20;99.90
53294;DHT22;39181;53.440;5.644;2022-09-16T11:13:35;18.00;99.90
53294;DHT22;39181;53.440;5.644;2022-09-16T11:19:09;18.20;99.90
53294;DHT22;39181;53.440;5.644;2022-09-16T11:24:49;17.90;99.90
53294;DHT22;39181;53.440;5.644;2022-09-16T11:27:26;17.60;99.90
53294;DHT22;39181;53.440;5.644;2022-09-16T11:30:11;17.40;99.90
53294;DHT22;39181;53.440;5.644;2022-09-16T11:41:11;17.10;99.90
53294;DHT22;39181;53.440;5.644;2022-09-16T11:46:35;17.20;99.90
53294;DHT22;39181;53.440;5.644;2022-09-16T11:49:45;17.30;99.90
53294;DHT22;39181;53.440;5.644;2022-09-16T11:58:03;17.40;99.90
53294;DHT22;39181;53.440;5.644;2022-09-16T12:00:33;17.20;99.90
53294;DHT22;39181;53.440;5.644;2022-09-16T12:03:19;17.10;99.90
53294;DHT22;39181;53.440;5.644;2022-09-16T12:05:51;17.10;99.90
53294;DHT22;39181;53.440;5.644;2022-09-16T12:08:34;17.00;99.90
53294;DHT22;39181;53.440;5.644;2022-09-16T12:11:23;16.80;99.90
53294;DHT22;39181;53.440;5.644;2022-09-16T12:13:56;16.60;99.90
53294;DHT22;39181;53.440;5.644;2022-09-16T12:16:36;16.50;99.90
53294;DHT22;39181;53.440;5.644;2022-09-16T12:19:16;16.30;99.90
53294;DHT22;39181;53.440;5.644;2022-09-16T12:21:52;16.30;99.90
53294;DHT22;39181;53.440;5.644;2022-09-16T12:27:24;16.20;99.90
53294;DHT22;39181;53.440;5.644;2022-09-16T12:30:04;16.20;99.90
53294;DHT22;39181;53.440;5.644;2022-09-16T12:35:42;16.30;99.90
53294;DHT22;39181;53.440;5.644;2022-09-16T12:38:16;16.30;99.90
53294;DHT22;39181;53.440;5.644;2022-09-16T12:41:05;16.30;99.90
53294;DHT22;39181;53.440;5.644;2022-09-16T12:49:33;16.40;99.90
53294;DHT22;39181;53.440;5.644;2022-09-16T13:00:13;16.30;99.90
53294;DHT22;39181;53.440;5.644;2022-09-16T13:02:50;16.30;99.90
53294;DHT22;39181;53.440;5.644;2022-09-16T13:07:50;16.10;99.90
53294;DHT22;39181;53.440;5.644;2022-09-16T13:12:55;16.30;99.90
53294;DHT22;39181;53.440;5.644;2022-09-16T13:15:36;16.20;99.90
53294;DHT22;39181;53.440;5.644;2022-09-16T13:21:10;16.20;99.90
53294;DHT22;39181;53.440;5.644;2022-09-16T13:23:42;16.20;99.90
53294;DHT22;39181;53.440;5.644;2022-09-16T13:26:08;16.30;99.90
53294;DHT22;39181;53.440;5.644;2022-09-16T13:28:39;16.30;99.90
53294;DHT22;39181;53.440;5.644;2022-09-16T13:38:58;15.40;99.90
53294;DHT22;39181;53.440;5.644;2022-09-16T13:41:39;15.30;99.90
53294;DHT22;39181;53.440;5.644;2022-09-16T13:52:30;15.00;99.90
53294;DHT22;39181;53.440;5.644;2022-09-16T13:54:58;15.10;99.90
53294;DHT22;39181;53.440;5.644;2022-09-16T13:58:11;15.20;99.90
53294;DHT22;39181;53.440;5.644;2022-09-16T14:01:01;15.20;99.90
53294;DHT22;39181;53.440;5.644;2022-09-16T14:12:17;14.20;99.90
53294;DHT22;39181;53.440;5.644;2022-09-16T14:14:45;14.10;99.90
53294;DHT22;39181;53.440;5.644;2022-09-16T14:17:25;14.10;99.90
53294;DHT22;39181;53.440;5.644;2022-09-16T14:19:56;14.40;99.90
53294;DHT22;39181;53.440;5.644;2022-09-16T14:22:22;14.00;99.90
53294;DHT22;39181;53.440;5.644;2022-09-16T14:24:51;13.90;99.90
53294;DHT22;39181;53.440;5.644;2022-09-16T14:27:33;14.10;99.90
53294;DHT22;39181;53.440;5.644;2022-09-16T14:30:04;14.00;99.90
53294;DHT22;39181;53.440;5.644;2022-09-16T14:32:32;14.10;99.90
53294;DHT22;39181;53.440;5.644;2022-09-16T14:35:09;14.20;99.90
53294;DHT22;39181;53.440;5.644;2022-09-16T14:37:37;14.30;99.90
53294;DHT22;39181;53.440;5.644;2022-09-16T14:40:11;14.40;99.90
53294;DHT22;39181;53.440;5.644;2022-09-16T14:42:47;14.40;99.90
53294;DHT22;39181;53.440;5.644;2022-09-16T14:45:14;14.40;99.90
53294;DHT22;39181;53.440;5.644;2022-09-16T14:47:42;14.20;99.90
53294;DHT22;39181;53.440;5.644;2022-09-16T14:52:54;13.90;99.90
53294;DHT22;39181;53.440;5.644;2022-09-16T14:55:21;13.70;99.90
53294;DHT22;39181;53.440;5.644;2022-09-16T14:57:47;13.70;99.90
53294;DHT22;39181;53.440;5.644;2022-09-16T15:00:15;13.60;99.90
53294;DHT22;39181;53.440;5.644;2022-09-16T15:03:30;13.70;99.90
53294;DHT22;39181;53.440;5.644;2022-09-16T15:05:35;13.80;99.90
53294;DHT22;39181;53.440;5.644;2022-09-16T15:08:28;14.00;99.90
53294;DHT22;39181;53.440;5.644;2022-09-16T15:10:58;14.00;99.90
53294;DHT22;39181;53.440;5.644;2022-09-16T15:13:30;14.10;99.90
53294;DHT22;39181;53.440;5.644;2022-09-16T15:16:02;14.20;99.90
53294;DHT22;39181;53.440;5.644;2022-09-16T15:18:36;14.20;99.90
53294;DHT22;39181;53.440;5.644;2022-09-16T15:21:07;14.20;99.90
53294;DHT22;39181;53.440;5.644;2022-09-16T15:23:34;14.30;99.90
53294;DHT22;39181;53.440;5.644;2022-09-16T15:29:24;14.30;99.90
53294;DHT22;39181;53.440;5.644;2022-09-16T15:31:51;14.40;99.90
53294;DHT22;39181;53.440;5.644;2022-09-16T15:36:47;14.60;99.90
53294;DHT22;39181;53.440;5.644;2022-09-16T15:39:39;14.80;99.90
53294;DHT22;39181;53.440;5.644;2022-09-16T15:42:16;14.80;99.90
53294;DHT22;39181;53.440;5.644;2022-09-16T15:45:10;14.80;99.90
53294;DHT22;39181;53.440;5.644;2022-09-16T15:47:38;14.90;99.90
53294;DHT22;39181;53.440;5.644;2022-09-16T15:50:15;14.90;99.90
53294;DHT22;39181;53.440;5.644;2022-09-16T15:53:02;14.90;99.90
53294;DHT22;39181;53.440;5.644;2022-09-16T15:55:40;15.00;99.90
53294;DHT22;39181;53.440;5.644;2022-09-16T16:00:57;14.90;99.90
53294;DHT22;39181;53.440;5.644;2022-09-16T16:03:23;14.90;99.90
53294;DHT22;39181;53.440;5.644;2022-09-16T16:05:50;14.80;99.90
53294;DHT22;39181;53.440;5.644;2022-09-16T16:08:36;14.70;99.90
53294;DHT22;39181;53.440;5.644;2022-09-16T16:11:13;14.60;99.90
53294;DHT22;39181;53.440;5.644;2022-09-16T16:13:40;14.50;99.90
53294;DHT22;39181;53.440;5.644;2022-09-16T16:16:06;14.50;99.90
53294;DHT22;39181;53.440;5.644;2022-09-16T16:18:33;14.50;99.90
53294;DHT22;39181;53.440;5.644;2022-09-16T16:21:04;14.60;99.90
53294;DHT22;39181;53.440;5.644;2022-09-16T16:23:30;14.50;99.90
53294;DHT22;39181;53.440;5.644;2022-09-16T16:25:55;14.40;99.90
53294;DHT22;39181;53.440;5.644;2022-09-16T16:28:21;14.40;99.90
53294;DHT22;39181;53.440;5.644;2022-09-16T16:30:47;14.40;99.90
53294;DHT22;39181;53.440;5.644;2022-09-16T16:33:12;14.30;99.90
53294;DHT22;39181;53.440;5.644;2022-09-16T16:35:38;14.30;99.90
53294;DHT22;39181;53.440;5.644;2022-09-16T16:38:03;14.40;99.90
53294;DHT22;39181;53.440;5.644;2022-09-16T16:40:29;14.30;99.90
53294;DHT22;39181;53.440;5.644;2022-09-16T16:42:55;14.20;99.90
53294;DHT22;39181;53.440;5.644;2022-09-16T16:45:21;14.20;99.90
53294;DHT22;39181;53.440;5.644;2022-09-16T16:47:46;14.10;99.90
53294;DHT22;39181;53.440;5.644;2022-09-16T16:50:12;14.20;99.90
53294;DHT22;39181;53.440;5.644;2022-09-16T16:52:39;14.20;99.90
53294;DHT22;39181;53.440;5.644;2022-09-16T16:55:05;14.10;99.90
53294;DHT22;39181;53.440;5.644;2022-09-16T16:57:31;14.10;99.90
53294;DHT22;39181;53.440;5.644;2022-09-16T16:59:56;14.10;99.90
53294;DHT22;39181;53.440;5.644;2022-09-16T17:02:22;14.10;99.90
53294;DHT22;39181;53.440;5.644;2022-09-16T17:04:48;14.10;99.90
53294;DHT22;39181;53.440;5.644;2022-09-16T17:07:13;14.10;99.90
53294;DHT22;39181;53.440;5.644;2022-09-16T17:09:39;14.00;99.90
53294;DHT22;39181;53.440;5.644;2022-09-16T17:12:05;13.90;99.90
53294;DHT22;39181;53.440;5.644;2022-09-16T17:14:32;14.10;99.90
53294;DHT22;39181;53.440;5.644;2022-09-16T17:16:58;14.10;99.90
53294;DHT22;39181;53.440;5.644;2022-09-16T17:19:25;14.20;99.90
53294;DHT22;39181;53.440;5.644;2022-09-16T17:21:51;14.10;99.90
53294;DHT22;39181;53.440;5.644;2022-09-16T17:24:18;14.10;99.90
53294;DHT22;39181;53.440;5.644;2022-09-16T17:26:45;14.20;99.90
53294;DHT22;39181;53.440;5.644;2022-09-16T17:29:11;14.10;99.90
53294;DHT22;39181;53.440;5.644;2022-09-16T17:31:37;13.90;99.90
53294;DHT22;39181;53.440;5.644;2022-09-16T17:34:13;13.90;99.90
53294;DHT22;39181;53.440;5.644;2022-09-16T17:36:41;13.70;99.90
53294;DHT22;39181;53.440;5.644;2022-09-16T17:39:12;13.60;99.90
53294;DHT22;39181;53.440;5.644;2022-09-16T17:41:39;13.60;99.90
53294;DHT22;39181;53.440;5.644;2022-09-16T17:44:07;13.60;99.90
53294;DHT22;39181;53.440;5.644;2022-09-16T17:46:34;13.80;99.90
53294;DHT22;39181;53.440;5.644;2022-09-16T17:49:05;13.70;99.90
53294;DHT22;39181;53.440;5.644;2022-09-16T17:51:33;13.60;99.90
53294;DHT22;39181;53.440;5.644;2022-09-16T17:53:59;13.70;99.90
53294;DHT22;39181;53.440;5.644;2022-09-16T17:56:25;13.50;99.90
53294;DHT22;39181;53.440;5.644;2022-09-16T17:58:52;13.30;99.90
53294;DHT22;39181;53.440;5.644;2022-09-16T18:01:23;13.30;99.90
53294;DHT22;39181;53.440;5.644;2022-09-16T18:03:51;13.20;99.90
53294;DHT22;39181;53.440;5.644;2022-09-16T18:06:19;13.20;99.90
53294;DHT22;39181;53.440;5.644;2022-09-16T18:08:46;13.20;99.90
53294;DHT22;39181;53.440;5.644;2022-09-16T18:11:13;13.20;99.90
53294;DHT22;39181;53.440;5.644;2022-09-16T18:13:39;13.20;99.90
53294;DHT22;39181;53.440;5.644;2022-09-16T18:16:07;13.30;99.90
53294;DHT22;39181;53.440;5.644;2022-09-16T18:18:37;13.40;99.90
53294;DHT22;39181;53.440;5.644;2022-09-16T18:21:05;13.30;99.90
53294;DHT22;39181;53.440;5.644;2022-09-16T18:23:31;13.40;99.90
53294;DHT22;39181;53.440;5.644;2022-09-16T18:26:01;13.30;99.90